createdAt,value
2023-04-26T00:00:14.251Z,100156.09
2023-04-26T00:03:04.206Z,100151.41
2023-04-26T00:05:35.167Z,100155.88
2023-04-26T00:08:04.240Z,100151.59
2023-04-26T00:10:33.269Z,100150.72
2023-04-26T00:13:03.922Z,100159.03
2023-04-26T00:15:33.325Z,100149.56
2023-04-26T00:18:02.211Z,100156.00
2023-04-26T00:20:31.455Z,100155.06
2023-04-26T00:23:00.296Z,100153.16
2023-04-26T00:25:29.681Z,100155.00
2023-04-26T00:27:58.447Z,100155.97
2023-04-26T00:30:28.956Z,100150.72
2023-04-26T00:32:58.023Z,100149.22
2023-04-26T00:35:27.073Z,100145.69
2023-04-26T00:37:56.551Z,100146.00
2023-04-26T00:40:25.686Z,100145.94
2023-04-26T00:42:58.784Z,100137.09
2023-04-26T00:45:29.794Z,100142.44
2023-04-26T00:47:59.418Z,100139.75
2023-04-26T00:50:28.996Z,100145.28
2023-04-26T00:52:58.514Z,100140.84
2023-04-26T00:55:28.188Z,100143.69
2023-04-26T00:57:57.854Z,100138.28
2023-04-26T01:00:27.795Z,100142.56
2023-04-26T01:02:58.140Z,100150.72
2023-04-26T01:05:27.600Z,100149.06
2023-04-26T01:07:56.546Z,100151.72
2023-04-26T01:10:26.539Z,100143.81
2023-04-26T01:12:55.544Z,100150.03
2023-04-26T01:15:24.806Z,100152.47
2023-04-26T01:17:53.771Z,100153.28
2023-04-26T01:20:24.459Z,100154.16
2023-04-26T01:22:54.852Z,100154.06
2023-04-26T01:25:24.100Z,100148.69
2023-04-26T01:27:53.004Z,100148.69
2023-04-26T01:30:22.097Z,100145.81
2023-04-26T01:32:51.060Z,100144.16
2023-04-26T01:35:20.955Z,100143.97
2023-04-26T01:37:50.141Z,100146.50
2023-04-26T01:40:20.548Z,100149.41
2023-04-26T01:42:49.531Z,100152.03
2023-04-26T01:45:18.637Z,100146.31
2023-04-26T01:48:06.903Z,100149.63
2023-04-26T01:50:36.123Z,100145.25
2023-04-26T01:53:04.988Z,100145.16
2023-04-26T01:55:36.220Z,100142.56
2023-04-26T01:58:05.249Z,100147.19
2023-04-26T02:00:35.403Z,100144.19
2023-04-26T02:03:04.495Z,100147.47
2023-04-26T02:05:33.599Z,100149.97
2023-04-26T02:08:03.016Z,100147.56
2023-04-26T02:10:32.174Z,100146.69
2023-04-26T02:13:02.511Z,100137.63
2023-04-26T02:15:31.931Z,100142.81
2023-04-26T02:18:00.755Z,100146.31
2023-04-26T02:20:30.109Z,100137.31
2023-04-26T02:22:58.849Z,100136.34
2023-04-26T02:25:28.025Z,100142.53
2023-04-26T02:27:56.846Z,100138.88
2023-04-26T02:31:20.047Z,100140.69
2023-04-26T02:33:51.458Z,100147.84
2023-04-26T02:36:21.348Z,100135.59
2023-04-26T02:38:50.426Z,100142.59
2023-04-26T02:41:20.090Z,100138.09
2023-04-26T02:43:49.632Z,100142.53
2023-04-26T02:46:18.732Z,100146.22
2023-04-26T02:48:47.658Z,100143.44
2023-04-26T02:51:18.171Z,100142.53
2023-04-26T02:53:47.012Z,100138.03
2023-04-26T02:56:16.234Z,100133.63
2023-04-26T02:58:44.960Z,100140.75
2023-04-26T03:01:14.925Z,100140.69
2023-04-26T03:03:44.568Z,100147.91
2023-04-26T03:06:13.828Z,100139.94
2023-04-26T03:08:44.156Z,100139.75
2023-04-26T03:11:13.406Z,100147.66
2023-04-26T03:13:42.323Z,100141.47
2023-04-26T03:16:11.773Z,100149.56
2023-04-26T03:18:40.848Z,100141.56
2023-04-26T03:21:11.952Z,100139.75
2023-04-26T03:23:41.261Z,100147.66
2023-04-26T03:26:12.119Z,100148.59
2023-04-26T03:28:40.922Z,100147.72
2023-04-26T03:31:10.119Z,100145.06
2023-04-26T03:33:38.966Z,100153.03
2023-04-26T03:36:08.398Z,100151.25
2023-04-26T03:38:37.450Z,100153.91
2023-04-26T03:41:07.063Z,100146.00
2023-04-26T03:43:37.262Z,100154.03
2023-04-26T03:46:06.695Z,100159.22
2023-04-26T03:48:35.480Z,100159.16
2023-04-26T03:51:04.663Z,100156.72
2023-04-26T03:53:34.490Z,100162.22
2023-04-26T03:56:03.587Z,100170.13
2023-04-26T03:58:34.740Z,100168.28
2023-04-26T04:01:06.187Z,100172.56
2023-04-26T04:03:36.275Z,100171.81
2023-04-26T04:06:07.143Z,100174.47
2023-04-26T04:08:36.073Z,100174.47
2023-04-26T04:11:05.534Z,100178.91
2023-04-26T04:13:37.745Z,100174.41
2023-04-26T04:16:10.280Z,100177.88
2023-04-26T04:18:39.379Z,100182.22
2023-04-26T04:21:08.428Z,100177.88
2023-04-26T04:23:37.757Z,100186.75
2023-04-26T04:26:12.560Z,100174.41
2023-04-26T04:28:42.401Z,100182.31
2023-04-26T04:31:13.114Z,100181.44
2023-04-26T04:33:42.823Z,100178.84
2023-04-26T04:36:16.864Z,100185.91
2023-04-26T04:38:47.572Z,100184.06
2023-04-26T04:41:18.846Z,100183.19
2023-04-26T04:43:47.899Z,100180.47
2023-04-26T04:46:18.404Z,100183.94
2023-04-26T04:48:47.510Z,100185.06
2023-04-26T04:51:16.584Z,100188.50
2023-04-26T04:53:45.665Z,100191.88
2023-04-26T04:56:15.785Z,100190.88
2023-04-26T04:58:44.786Z,100191.75
2023-04-26T05:01:13.893Z,100189.06
2023-04-26T05:03:52.587Z,100200.47
2023-04-26T05:06:22.791Z,100199.53
2023-04-26T05:08:51.678Z,100203.13
2023-04-26T05:11:21.465Z,100200.50
2023-04-26T05:13:52.693Z,100207.50
2023-04-26T05:16:23.026Z,100208.56
2023-04-26T05:18:53.519Z,100211.16
2023-04-26T05:21:23.100Z,100207.63
2023-04-26T05:23:52.373Z,100210.28
2023-04-26T05:26:21.757Z,100215.66
2023-04-26T05:29:14.944Z,100211.97
2023-04-26T05:32:07.264Z,100210.84
2023-04-26T05:34:43.784Z,100211.56
2023-04-26T05:37:18.361Z,100206.19
2023-04-26T05:39:47.275Z,100203.47
2023-04-26T05:42:17.984Z,100202.66
2023-04-26T05:44:47.673Z,100214.06
2023-04-26T05:47:16.748Z,100215.72
2023-04-26T05:49:47.391Z,100217.22
2023-04-26T05:52:16.623Z,100215.56
2023-04-26T05:54:45.394Z,100222.44
2023-04-26T05:57:15.022Z,100226.69
2023-04-26T05:59:43.945Z,100221.13
2023-04-26T06:02:13.368Z,100221.84
2023-04-26T06:04:42.443Z,100213.59
2023-04-26T06:07:19.544Z,100223.25
2023-04-26T06:09:49.428Z,100228.38
2023-04-26T06:12:18.877Z,100221.00
2023-04-26T06:14:48.637Z,100224.69
2023-04-26T06:17:22.037Z,100230.09
2023-04-26T06:19:51.025Z,100228.22
2023-04-26T06:22:22.817Z,100233.56
2023-04-26T06:24:51.626Z,100222.84
2023-04-26T06:27:20.813Z,100221.94
2023-04-26T06:29:51.426Z,100229.69
2023-04-26T06:32:21.903Z,100219.88
2023-04-26T06:34:50.972Z,100231.16
2023-04-26T06:37:21.419Z,100220.31
2023-04-26T06:39:50.741Z,100217.41
2023-04-26T06:42:20.504Z,100212.84
2023-04-26T06:45:20.124Z,100215.34
2023-04-26T06:47:52.300Z,100225.09
2023-04-26T06:50:21.658Z,100225.81
2023-04-26T06:52:52.414Z,100215.91
2023-04-26T06:55:21.352Z,100213.22
2023-04-26T06:57:50.994Z,100225.56
2023-04-26T07:00:20.153Z,100221.91
2023-04-26T07:02:49.653Z,100218.25
2023-04-26T07:05:18.694Z,100228.91
2023-04-26T07:07:48.146Z,100240.47
2023-04-26T07:10:18.649Z,100238.50
2023-04-26T07:12:48.438Z,100231.50
2023-04-26T07:15:17.258Z,100234.88
2023-04-26T07:17:46.457Z,100238.25
2023-04-26T07:20:19.833Z,100235.34
2023-04-26T07:22:49.250Z,100236.91
2023-04-26T07:25:19.627Z,100244.72
2023-04-26T07:27:51.733Z,100238.41
2023-04-26T07:30:20.587Z,100239.06
2023-04-26T07:32:50.116Z,100232.56
2023-04-26T07:35:19.089Z,100227.97
2023-04-26T07:37:48.597Z,100241.16
2023-04-26T07:40:18.801Z,100249.25
2023-04-26T07:42:49.740Z,100245.63
2023-04-26T07:45:19.544Z,100247.31
2023-04-26T07:47:49.066Z,100255.41
2023-04-26T07:50:18.032Z,100244.47
2023-04-26T07:52:47.806Z,100251.44
2023-04-26T07:55:17.778Z,100251.22
2023-04-26T07:57:47.226Z,100252.78
2023-04-26T08:00:18.934Z,100253.66
2023-04-26T08:02:48.486Z,100253.75
2023-04-26T08:05:17.794Z,100260.88
2023-04-26T08:07:47.278Z,100251.91
2023-04-26T08:10:16.208Z,100260.59
2023-04-26T08:12:45.620Z,100264.16
2023-04-26T08:15:14.882Z,100259.00
2023-04-26T08:17:45.793Z,100268.22
2023-04-26T08:20:16.478Z,100257.78
2023-04-26T08:22:45.856Z,100261.28
2023-04-26T08:25:14.676Z,100271.03
2023-04-26T08:27:44.977Z,100261.28
2023-04-26T08:30:14.375Z,100260.44
2023-04-26T08:32:43.534Z,100263.09
2023-04-26T08:35:14.201Z,100254.25
2023-04-26T08:37:43.472Z,100271.22
2023-04-26T08:40:12.475Z,100265.06
2023-04-26T08:42:44.057Z,100261.28
2023-04-26T08:45:13.108Z,100270.06
2023-04-26T08:47:45.832Z,100275.06
2023-04-26T08:50:16.993Z,100270.63
2023-04-26T08:52:48.597Z,100270.44
2023-04-26T08:55:18.320Z,100278.28
2023-04-26T08:57:49.844Z,100293.94
2023-04-26T09:00:19.792Z,100281.78
2023-04-26T09:02:51.393Z,100288.38
2023-04-26T09:05:24.404Z,100280.47
2023-04-26T09:07:57.665Z,100292.09
2023-04-26T09:10:26.959Z,100293.78
2023-04-26T09:12:56.611Z,100300.97
2023-04-26T09:15:27.528Z,100301.72
2023-04-26T09:17:56.785Z,100300.41
2023-04-26T09:20:27.836Z,100300.06
2023-04-26T09:23:05.427Z,100311.44
2023-04-26T09:25:34.510Z,100300.25
2023-04-26T09:28:04.329Z,100302.91
2023-04-26T09:30:39.402Z,100307.56
2023-04-26T09:33:09.639Z,100306.34
2023-04-26T09:35:41.355Z,100310.38
2023-04-26T09:38:13.570Z,100307.00
2023-04-26T09:40:44.000Z,100314.34
2023-04-26T09:43:13.972Z,100312.66
2023-04-26T09:45:47.203Z,100318.63
2023-04-26T09:48:17.775Z,100322.19
2023-04-26T09:50:48.277Z,100338.19
2023-04-26T09:53:31.092Z,100325.34
2023-04-26T09:56:07.890Z,100332.63
2023-04-26T09:58:38.098Z,100334.16
2023-04-26T10:01:08.325Z,100339.56
2023-04-26T10:03:38.051Z,100339.81
2023-04-26T10:06:08.954Z,100341.66
2023-04-26T10:08:38.224Z,100350.81
2023-04-26T10:11:08.427Z,100352.50
2023-04-26T10:13:37.603Z,100359.69
2023-04-26T10:16:07.233Z,100370.97
2023-04-26T10:18:37.306Z,100360.31
2023-04-26T10:21:08.224Z,100357.13
2023-04-26T10:23:39.541Z,100376.72
2023-04-26T10:26:08.765Z,100377.50
2023-04-26T10:29:02.051Z,100364.19
2023-04-26T10:31:50.414Z,100364.19
2023-04-26T10:34:20.465Z,100362.97
2023-04-26T10:37:10.209Z,100366.53
2023-04-26T10:39:42.619Z,100373.28
2023-04-26T10:42:25.463Z,100371.84
2023-04-26T10:44:57.930Z,100366.84
2023-04-26T10:47:29.091Z,100365.53
2023-04-26T10:50:11.203Z,100376.66
2023-04-26T10:53:04.381Z,100367.56
2023-04-26T10:55:42.394Z,100379.66
2023-04-26T10:58:28.281Z,100381.38
2023-04-26T11:01:07.724Z,100386.03
2023-04-26T11:03:38.310Z,100383.22
2023-04-26T11:06:14.065Z,100383.13
2023-04-26T11:08:43.691Z,100387.34
2023-04-26T11:11:23.649Z,100386.91
2023-04-26T11:13:54.849Z,100400.03
2023-04-26T11:16:27.162Z,100391.00
2023-04-26T11:18:56.621Z,100389.22
2023-04-26T11:21:27.245Z,100373.09
2023-04-26T11:23:58.910Z,100388.53
2023-04-26T11:26:35.520Z,100401.19
2023-04-26T11:29:04.637Z,100399.63
2023-04-26T11:31:38.517Z,100400.84
2023-04-26T11:34:07.779Z,100395.25
2023-04-26T11:36:38.493Z,100411.81
2023-04-26T11:39:08.832Z,100408.84
2023-04-26T11:41:39.717Z,100417.44
2023-04-26T11:44:09.193Z,100399.69
2023-04-26T11:46:40.094Z,100406.56
2023-04-26T11:49:09.828Z,100389.22
2023-04-26T11:51:40.060Z,100424.00
2023-04-26T11:54:11.538Z,100407.84
2023-04-26T11:56:42.737Z,100401.31
2023-04-26T11:59:12.728Z,100386.06
2023-04-26T12:01:51.874Z,100407.84
2023-04-26T12:04:21.470Z,100411.50
2023-04-26T12:06:56.284Z,100395.69
2023-04-26T12:09:25.746Z,100421.78
2023-04-26T12:11:58.992Z,100419.13
2023-04-26T12:14:32.249Z,100426.13
2023-04-26T12:17:06.368Z,100425.72
2023-04-26T12:19:36.767Z,100430.94
2023-04-26T12:22:08.336Z,100426.88
2023-04-26T12:24:38.188Z,100433.84
2023-04-26T12:27:10.041Z,100432.69
2023-04-26T12:29:41.348Z,100435.97
2023-04-26T12:32:11.828Z,100437.63
2023-04-26T12:34:42.570Z,100443.97
2023-04-26T12:37:19.656Z,100459.94
2023-04-26T12:39:50.533Z,100462.63
2023-04-26T12:42:23.983Z,100457.28
2023-04-26T12:44:53.344Z,100475.25
2023-04-26T12:47:23.937Z,100469.94
2023-04-26T12:49:56.308Z,100469.31
2023-04-26T12:52:27.821Z,100470.09
2023-04-26T12:54:57.270Z,100457.94
2023-04-26T12:57:27.721Z,100474.16
2023-04-26T12:59:56.774Z,100474.22
2023-04-26T13:02:25.984Z,100484.03
2023-04-26T13:04:55.320Z,100474.94
2023-04-26T13:07:24.488Z,100466.22
2023-04-26T13:09:53.621Z,100474.75
2023-04-26T13:12:25.603Z,100478.31
2023-04-26T13:15:00.489Z,100469.94
2023-04-26T13:17:37.504Z,100476.84
2023-04-26T13:20:08.049Z,100473.63
2023-04-26T13:22:42.552Z,100486.81
2023-04-26T13:25:15.808Z,100475.72
2023-04-26T13:27:46.150Z,100471.97
2023-04-26T13:30:19.488Z,100476.91
2023-04-26T13:32:49.870Z,100498.94
2023-04-26T13:35:18.840Z,100481.16
2023-04-26T13:37:47.931Z,100490.78
2023-04-26T13:40:17.308Z,100490.09
2023-04-26T13:42:46.351Z,100499.00
2023-04-26T13:45:18.211Z,100492.44
2023-04-26T13:47:48.572Z,100493.41
2023-04-26T13:50:17.638Z,100509.88
2023-04-26T13:52:48.594Z,100510.03
2023-04-26T13:55:19.088Z,100520.09
2023-04-26T13:57:48.331Z,100523.00
2023-04-26T14:00:19.328Z,100527.25
2023-04-26T14:02:53.168Z,100522.34
2023-04-26T14:05:24.625Z,100532.06
2023-04-26T14:07:55.227Z,100527.84
2023-04-26T14:10:25.354Z,100530.50
2023-04-26T14:12:57.050Z,100543.22
2023-04-26T14:15:28.545Z,100539.75
2023-04-26T14:18:02.231Z,100534.03
2023-04-26T14:20:32.201Z,100532.34
2023-04-26T14:23:03.578Z,100546.25
2023-04-26T14:25:34.028Z,100551.00
2023-04-26T14:28:04.840Z,100535.41
2023-04-26T14:30:35.641Z,100530.22
2023-04-26T14:33:06.006Z,100546.66
2023-04-26T14:35:37.475Z,100546.47
2023-04-26T14:38:08.200Z,100546.75
2023-04-26T14:40:37.763Z,100554.41
2023-04-26T14:43:07.032Z,100548.91
2023-04-26T14:45:44.604Z,100554.34
2023-04-26T14:48:14.772Z,100563.66
2023-04-26T14:50:43.766Z,100564.13
2023-04-26T14:53:13.278Z,100562.38
2023-04-26T14:55:42.210Z,100575.16
2023-04-26T14:58:11.753Z,100553.53
2023-04-26T15:00:43.096Z,100575.66
2023-04-26T15:03:14.970Z,100563.53
2023-04-26T15:05:43.981Z,100576.81
2023-04-26T15:08:13.310Z,100566.03
2023-04-26T15:10:42.171Z,100575.84
2023-04-26T15:13:11.464Z,100576.06
2023-04-26T15:15:40.463Z,100581.72
2023-04-26T15:18:11.048Z,100598.00
2023-04-26T15:20:40.551Z,100589.66
2023-04-26T15:23:09.626Z,100588.44
2023-04-26T15:25:38.709Z,100579.56
2023-04-26T15:28:07.742Z,100585.03
2023-04-26T15:30:36.678Z,100594.22
2023-04-26T15:33:06.958Z,100598.88
2023-04-26T15:35:37.302Z,100602.69
2023-04-26T15:38:06.639Z,100599.19
2023-04-26T15:40:37.544Z,100607.16
2023-04-26T15:43:07.619Z,100595.63
2023-04-26T15:45:36.793Z,100602.13
2023-04-26T15:48:07.590Z,100599.00
2023-04-26T15:50:38.032Z,100604.16
2023-04-26T15:53:07.209Z,100602.03
2023-04-26T15:55:36.287Z,100602.16
2023-04-26T15:58:05.917Z,100602.47
2023-04-26T16:00:35.072Z,100610.19
2023-04-26T16:03:04.471Z,100597.75
2023-04-26T16:05:33.659Z,100605.53
2023-04-26T16:08:09.676Z,100606.13
2023-04-26T16:10:58.364Z,100608.09
2023-04-26T16:13:30.769Z,100614.88
2023-04-26T16:16:00.277Z,100610.19
2023-04-26T16:18:30.466Z,100615.63
2023-04-26T16:21:04.253Z,100616.53
2023-04-26T16:23:34.932Z,100612.03
2023-04-26T16:26:06.663Z,100618.41
2023-04-26T16:28:35.996Z,100627.28
2023-04-26T16:31:05.100Z,100638.50
2023-04-26T16:33:34.541Z,100625.75
2023-04-26T16:36:03.650Z,100622.66
2023-04-26T16:38:33.854Z,100626.28
2023-04-26T16:41:04.214Z,100632.19
2023-04-26T16:43:34.891Z,100624.69
2023-04-26T16:46:04.541Z,100628.94
2023-04-26T16:48:34.808Z,100638.06
2023-04-26T16:51:07.150Z,100638.75
2023-04-26T16:53:37.729Z,100630.50
2023-04-26T16:56:08.507Z,100649.72
2023-04-26T16:58:37.858Z,100645.88
2023-04-26T17:01:06.772Z,100645.66
2023-04-26T17:03:36.260Z,100649.66
2023-04-26T17:06:06.714Z,100655.03
2023-04-26T17:08:36.019Z,100653.91
2023-04-26T17:11:04.942Z,100657.91
2023-04-26T17:13:35.470Z,100660.03
2023-04-26T17:16:05.849Z,100650.69
2023-04-26T17:18:36.705Z,100661.25
2023-04-26T17:21:07.130Z,100666.03
2023-04-26T17:23:36.853Z,100671.69
2023-04-26T17:26:05.974Z,100665.78
2023-04-26T17:28:38.919Z,100669.69
2023-04-26T17:31:08.125Z,100671.38
2023-04-26T17:33:37.813Z,100673.34
2023-04-26T17:36:07.346Z,100676.31
2023-04-26T17:38:36.376Z,100688.31
2023-04-26T17:41:05.598Z,100682.97
2023-04-26T17:43:36.059Z,100685.00
2023-04-26T17:46:05.100Z,100688.03
2023-04-26T17:48:34.161Z,100683.97
2023-04-26T17:51:03.321Z,100693.03
2023-04-26T17:53:32.531Z,100699.44
2023-04-26T17:56:01.772Z,100696.13
2023-04-26T17:58:31.218Z,100702.03
2023-04-26T18:01:02.252Z,100697.78
2023-04-26T18:03:31.790Z,100699.06
2023-04-26T18:06:00.884Z,100704.66
2023-04-26T18:08:29.951Z,100702.44
2023-04-26T18:10:58.956Z,100700.72
2023-04-26T18:13:28.319Z,100709.69
2023-04-26T18:15:57.618Z,100715.28
2023-04-26T18:18:28.186Z,100716.31
2023-04-26T18:20:58.943Z,100716.63
2023-04-26T18:23:28.001Z,100729.28
2023-04-26T18:25:56.800Z,100727.84
2023-04-26T18:28:26.189Z,100734.41
2023-04-26T18:30:57.241Z,100734.66
2023-04-26T18:33:29.843Z,100733.03
2023-04-26T18:35:59.124Z,100731.44
2023-04-26T18:38:29.417Z,100736.53
2023-04-26T18:40:59.486Z,100740.38
2023-04-26T18:43:28.759Z,100734.28
2023-04-26T18:45:57.556Z,100739.88
2023-04-26T18:48:28.685Z,100749.91
2023-04-26T18:50:57.908Z,100746.63
2023-04-26T18:53:26.955Z,100744.66
2023-04-26T18:55:57.109Z,100747.28
2023-04-26T18:58:26.562Z,100762.69
2023-04-26T19:00:55.598Z,100747.88
2023-04-26T19:03:24.937Z,100756.13
2023-04-26T19:05:58.081Z,100753.47
2023-04-26T19:08:28.035Z,100747.00
2023-04-26T19:10:57.356Z,100752.47
2023-04-26T19:13:26.742Z,100752.34
2023-04-26T19:15:55.570Z,100750.09
2023-04-26T19:18:24.645Z,100745.75
2023-04-26T19:20:53.422Z,100752.91
2023-04-26T19:23:23.998Z,100750.09
2023-04-26T19:25:55.432Z,100751.03
2023-04-26T19:28:24.757Z,100751.16
2023-04-26T19:30:54.294Z,100753.03
2023-04-26T19:33:23.396Z,100750.53
2023-04-26T19:35:52.260Z,100748.16
2023-04-26T19:38:21.332Z,100757.06
2023-04-26T19:40:51.629Z,100749.25
2023-04-26T19:43:21.235Z,100750.34
2023-04-26T19:45:51.475Z,100746.13
2023-04-26T19:48:20.494Z,100752.06
2023-04-26T19:50:49.434Z,100745.31
2023-04-26T19:53:18.898Z,100753.31
2023-04-26T19:55:47.914Z,100763.19
2023-04-26T19:58:20.113Z,100752.75
2023-04-26T20:00:58.131Z,100761.78
2023-04-26T20:03:28.489Z,100762.81
2023-04-26T20:05:58.152Z,100766.47
2023-04-26T20:08:31.439Z,100769.13
2023-04-26T20:11:03.525Z,100763.03
2023-04-26T20:13:35.427Z,100764.84
2023-04-26T20:16:05.858Z,100767.59
2023-04-26T20:18:35.078Z,100758.88
2023-04-26T20:21:07.140Z,100766.88
2023-04-26T20:23:36.628Z,100765.13
2023-04-26T20:26:05.415Z,100763.41
2023-04-26T20:28:41.460Z,100763.41
2023-04-26T20:31:11.604Z,100764.28
2023-04-26T20:33:40.993Z,100760.06
2023-04-26T20:36:11.293Z,100762.69
2023-04-26T20:38:41.088Z,100760.78
2023-04-26T20:41:12.182Z,100755.47
2023-04-26T20:43:47.064Z,100760.97
2023-04-26T20:46:17.844Z,100765.59
2023-04-26T20:48:48.224Z,100754.94
2023-04-26T20:51:18.000Z,100761.28
2023-04-26T20:53:49.337Z,100764.09
2023-04-26T20:56:18.825Z,100764.09
2023-04-26T20:58:49.272Z,100761.47
2023-04-26T21:01:18.588Z,100760.63
2023-04-26T21:03:48.152Z,100765.19
2023-04-26T21:06:17.018Z,100765.19
2023-04-26T21:08:46.313Z,100767.03
2023-04-26T21:11:15.073Z,100762.72
2023-04-26T21:13:44.318Z,100767.19
2023-04-26T21:16:14.646Z,100762.72
2023-04-26T21:18:43.770Z,100767.13
2023-04-26T21:21:12.701Z,100770.78
2023-04-26T21:23:42.291Z,100767.38
2023-04-26T21:26:11.101Z,100773.59
2023-04-26T21:28:40.259Z,100781.53
2023-04-26T21:31:09.114Z,100783.34
2023-04-26T21:33:40.025Z,100787.81
2023-04-26T21:36:09.470Z,100784.38
2023-04-26T21:38:38.586Z,100786.16
2023-04-26T21:41:07.356Z,100792.28
2023-04-26T21:43:38.102Z,100788.78
2023-04-26T21:46:08.095Z,100795.91
2023-04-26T21:48:38.839Z,100796.91
2023-04-26T21:51:09.331Z,100793.38
2023-04-26T21:53:38.830Z,100792.50
2023-04-26T21:56:07.852Z,100796.94
2023-04-26T21:58:36.870Z,100796.09
2023-04-26T22:01:09.548Z,100797.97
2023-04-26T22:03:38.932Z,100796.25
2023-04-26T22:06:09.848Z,100807.94
2023-04-26T22:08:39.674Z,100811.34
2023-04-26T22:11:08.418Z,100815.75
2023-04-26T22:13:37.619Z,100810.44
2023-04-26T22:16:06.895Z,100814.84
2023-04-26T22:18:36.473Z,100816.66
2023-04-26T22:21:05.211Z,100819.41
2023-04-26T22:23:35.971Z,100819.41
2023-04-26T22:26:05.138Z,100829.13
2023-04-26T22:28:34.191Z,100824.66
2023-04-26T22:31:03.410Z,100828.09
2023-04-26T22:33:32.431Z,100828.13
2023-04-26T22:36:01.534Z,100822.03
2023-04-26T22:38:30.730Z,100828.19
2023-04-26T22:41:01.095Z,100830.75
2023-04-26T22:43:30.307Z,100822.78
2023-04-26T22:45:59.074Z,100820.97
2023-04-26T22:48:28.413Z,100819.31
2023-04-26T22:50:57.579Z,100825.38
2023-04-26T22:53:26.692Z,100824.56
2023-04-26T22:55:55.678Z,100826.34
2023-04-26T22:58:26.312Z,100828.03
2023-04-26T23:00:55.243Z,100820.03
2023-04-26T23:03:24.498Z,100827.91
2023-04-26T23:05:53.649Z,100822.59
2023-04-26T23:08:22.808Z,100833.13
2023-04-26T23:10:51.780Z,100831.38
2023-04-26T23:13:21.588Z,100841.91
2023-04-26T23:15:52.422Z,100832.16
2023-04-26T23:18:21.780Z,100835.72
2023-04-26T23:20:51.500Z,100848.06
2023-04-26T23:23:20.704Z,100842.88
2023-04-26T23:25:49.522Z,100837.53
2023-04-26T23:28:18.951Z,100842.81
2023-04-26T23:30:47.728Z,100834.94
2023-04-26T23:33:18.401Z,100843.69
2023-04-26T23:35:47.302Z,100840.13
2023-04-26T23:38:16.653Z,100841.91
2023-04-26T23:40:46.226Z,100841.09
2023-04-26T23:43:15.421Z,100848.13
2023-04-26T23:45:47.386Z,100834.91
2023-04-26T23:48:18.434Z,100846.34
2023-04-26T23:50:47.364Z,100848.09
2023-04-26T23:53:16.651Z,100841.00
2023-04-26T23:55:46.092Z,100842.81
2023-04-26T23:58:15.226Z,100844.59
